Avondale Estates, Georgia
Current Conditions -  °F | °C
As of 12:53 AM on Sunday 26 Oct 2014 (Local Time) from KPDK Reporting Station
Clear Clear  
Wind Chill: 58°   Ceiling: Unl
Heat Index: 58°   Visibility: 9mi
Dew Point: 51°   Wind: 6mph
Humidity: 78%   Direction: 290°WNW
Pressure: 30.01"   Gusts: NA
Location:  33.77°N, 84.27°W
Report Text: KPDK 260453Z 29005KT 9SM CLR 14/11 A3001 RMK AO2 SLP156 T01440106 402440050
Loading
Personal Weather Stations






























Interactive Weather Map
Tropical Storm Tracking
New forecast layout! Learn more

10-Day Weather Forecast

Advertisements
Track Severe Weather on mobile